createdAt,value
2017-10-12T00:00:34.751Z,93.5
2017-10-12T00:01:34.724Z,93.21
2017-10-12T00:02:34.704Z,93.5
2017-10-12T00:03:34.678Z,93.79
2017-10-12T00:04:34.661Z,93.4
2017-10-12T00:05:34.645Z,93.4
2017-10-12T00:06:34.611Z,93.21
2017-10-12T00:07:34.588Z,93.3
2017-10-12T00:08:34.565Z,93.4
2017-10-12T00:09:34.549Z,93.59
2017-10-12T00:10:34.528Z,93.3
2017-10-12T00:11:34.509Z,93.59
2017-10-12T00:12:34.480Z,93.59
2017-10-12T00:13:34.464Z,93.59
2017-10-12T00:14:34.442Z,93.4
2017-10-12T00:15:34.417Z,93.98
2017-10-12T00:16:34.398Z,93.79
2017-10-12T00:17:34.370Z,93.59
2017-10-12T00:18:34.349Z,93.79
2017-10-12T00:19:34.328Z,93.69
2017-10-12T00:20:34.312Z,93.4
2017-10-12T00:21:34.275Z,93.5
2017-10-12T00:22:34.262Z,93.4
2017-10-12T00:23:34.237Z,93.3
2017-10-12T00:24:34.221Z,93.59
2017-10-12T00:25:34.194Z,93.3
2017-10-12T00:26:34.186Z,93.5
2017-10-12T00:27:34.152Z,93.59
2017-10-12T00:28:34.131Z,93.3
2017-10-12T00:29:34.112Z,93.79
2017-10-12T00:30:34.091Z,93.79
2017-10-12T00:31:34.071Z,93.98
2017-10-12T00:32:34.047Z,93.69
2017-10-12T00:33:34.022Z,93.59
2017-10-12T00:34:34.002Z,93.69
2017-10-12T00:35:33.986Z,93.79
2017-10-12T00:36:33.955Z,93.5
2017-10-12T00:37:33.934Z,93.4
2017-10-12T00:38:33.921Z,93.3
2017-10-12T00:39:33.891Z,93.59
2017-10-12T00:40:33.871Z,93.69
2017-10-12T00:41:33.842Z,93.69
2017-10-12T00:42:33.821Z,93.4
2017-10-12T00:43:33.804Z,93.79
2017-10-12T00:44:33.781Z,93.88
2017-10-12T00:45:33.763Z,93.79
2017-10-12T00:46:33.743Z,93.84
2017-10-12T00:47:33.721Z,93.35
2017-10-12T00:48:33.693Z,93.45
2017-10-12T00:49:33.671Z,93.55
2017-10-12T00:50:33.651Z,93.45
2017-10-12T00:51:33.632Z,93.55
2017-10-12T00:52:33.604Z,93.45
2017-10-12T00:53:33.582Z,93.55
2017-10-12T00:54:33.559Z,93.55
2017-10-12T00:55:33.542Z,93.26
2017-10-12T00:56:33.519Z,93.45
2017-10-12T00:57:33.490Z,93.45
2017-10-12T00:58:33.471Z,93.45
2017-10-12T00:59:33.453Z,93.45
2017-10-12T01:00:33.429Z,93.55
2017-10-12T01:01:33.410Z,93.21
2017-10-12T01:02:33.390Z,93.31
2017-10-12T01:03:33.042Z,93.31
2017-10-12T01:04:33.337Z,93.12
2017-10-12T01:05:33.316Z,93.21
2017-10-12T01:06:33.292Z,93.21
2017-10-12T01:07:33.269Z,92.93
2017-10-12T01:08:33.261Z,92.83
2017-10-12T01:09:33.237Z,93.12
2017-10-12T01:10:33.202Z,93.4
2017-10-12T01:11:33.182Z,93.21
2017-10-12T01:12:33.161Z,93.5
2017-10-12T01:13:33.144Z,93.21
2017-10-12T01:14:33.117Z,92.83
2017-10-12T01:15:33.090Z,93.21
2017-10-12T01:16:33.068Z,92.97
2017-10-12T01:17:33.055Z,92.59
2017-10-12T01:18:33.029Z,92.79
2017-10-12T01:19:33.002Z,92.69
2017-10-12T01:20:32.982Z,92.97
2017-10-12T01:21:32.958Z,92.69
2017-10-12T01:22:32.933Z,92.59
2017-10-12T01:23:32.914Z,92.5
2017-10-12T01:24:32.889Z,92.88
2017-10-12T01:25:32.867Z,92.5
2017-10-12T01:26:32.844Z,92.4
2017-10-12T01:27:32.825Z,92.59
2017-10-12T01:28:32.803Z,92.4
2017-10-12T01:29:32.775Z,92.4
2017-10-12T01:30:32.758Z,92.21
2017-10-12T01:31:32.736Z,92.11
2017-10-12T01:32:32.715Z,92.79
2017-10-12T01:33:32.690Z,92.79
2017-10-12T01:34:32.665Z,92.97
2017-10-12T01:35:32.643Z,93.16
2017-10-12T01:36:32.627Z,93.07
2017-10-12T01:37:32.608Z,93.07
2017-10-12T01:38:32.579Z,93.16
2017-10-12T01:39:32.554Z,92.79
2017-10-12T01:40:32.535Z,92.79
2017-10-12T01:41:32.194Z,92.79
2017-10-12T01:42:32.490Z,93.07
2017-10-12T01:43:32.460Z,93.07
2017-10-12T01:44:32.442Z,92.5
2017-10-12T01:45:32.414Z,92.59
2017-10-12T01:46:32.398Z,92.59
2017-10-12T01:47:32.372Z,92.79
2017-10-12T01:48:32.357Z,92.88
2017-10-12T01:49:32.337Z,93.16
2017-10-12T01:50:32.307Z,92.5
2017-10-12T01:51:32.282Z,93.16
2017-10-12T01:52:32.266Z,93.16
2017-10-12T01:53:32.241Z,93.07
2017-10-12T01:54:31.898Z,92.97
2017-10-12T01:55:32.199Z,93.16
2017-10-12T01:56:32.169Z,93.07
2017-10-12T01:57:32.153Z,92.97
2017-10-12T01:58:32.128Z,92.97
2017-10-12T01:59:32.100Z,92.88
2017-10-12T02:00:32.081Z,92.69
2017-10-12T02:01:32.066Z,92.88
2017-10-12T02:02:32.035Z,92.69
2017-10-12T02:03:32.011Z,93.07
2017-10-12T02:04:31.989Z,93.16
2017-10-12T02:05:31.968Z,93.07
2017-10-12T02:06:31.945Z,93.07
2017-10-12T02:07:31.923Z,93.16
2017-10-12T02:08:31.902Z,92.97
2017-10-12T02:09:31.878Z,93.07
2017-10-12T02:10:31.855Z,93.16
2017-10-12T02:11:31.515Z,93.26
2017-10-12T02:12:31.493Z,93.07
2017-10-12T02:13:31.790Z,93.02
2017-10-12T02:14:31.769Z,93.07
2017-10-12T02:15:31.750Z,93.31
2017-10-12T02:16:31.731Z,93.12
2017-10-12T02:17:31.698Z,93.21
2017-10-12T02:18:31.693Z,93.21
2017-10-12T02:19:31.653Z,93.21
2017-10-12T02:20:31.627Z,93.02
2017-10-12T02:21:31.293Z,92.88
2017-10-12T02:22:31.587Z,93.07
2017-10-12T02:23:31.251Z,93.12
2017-10-12T02:24:31.538Z,93.21
2017-10-12T02:25:31.516Z,92.93
2017-10-12T02:26:31.507Z,93.02
2017-10-12T02:27:31.475Z,93.02
2017-10-12T02:28:31.452Z,93.12
2017-10-12T02:29:31.428Z,93.02
2017-10-12T02:30:31.450Z,93.12
2017-10-12T02:31:31.392Z,93.02
2017-10-12T02:32:31.363Z,93.31
2017-10-12T02:33:31.347Z,92.88
2017-10-12T02:34:31.322Z,93.4
2017-10-12T02:35:31.297Z,93.4
2017-10-12T02:36:31.278Z,93.36
2017-10-12T02:37:31.254Z,93.02
2017-10-12T02:38:31.238Z,93.21
2017-10-12T02:39:31.217Z,93.21
2017-10-12T02:40:31.188Z,92.93
2017-10-12T02:41:31.168Z,93.26
2017-10-12T02:42:31.139Z,93.4
2017-10-12T02:43:31.112Z,93.21
2017-10-12T02:44:31.096Z,93.4
2017-10-12T02:45:31.082Z,93.21
2017-10-12T02:46:31.046Z,93.02
2017-10-12T02:47:31.027Z,92.97
2017-10-12T02:48:31.003Z,92.93
2017-10-12T02:49:31.008Z,93.4
2017-10-12T02:50:30.958Z,93.16
2017-10-12T02:51:30.939Z,93.21
2017-10-12T02:52:30.917Z,93.4
2017-10-12T02:53:30.900Z,93.4
2017-10-12T02:54:30.873Z,93.16
2017-10-12T02:55:30.851Z,93.4
2017-10-12T02:56:30.831Z,93.69
2017-10-12T02:57:30.832Z,93.69
2017-10-12T02:58:30.788Z,93.69
2017-10-12T02:59:30.759Z,93.88
2017-10-12T03:00:30.738Z,93.6
2017-10-12T03:01:30.713Z,93.79
2017-10-12T03:02:30.691Z,93.4
2017-10-12T03:03:30.672Z,93.88
2017-10-12T03:04:30.647Z,93.79
2017-10-12T03:05:30.630Z,93.88
2017-10-12T03:06:30.606Z,93.5
2017-10-12T03:07:30.573Z,93.6
2017-10-12T03:08:30.558Z,93.79
2017-10-12T03:09:30.539Z,93.69
2017-10-12T03:10:30.518Z,93.4
2017-10-12T03:11:30.490Z,93.6
2017-10-12T03:12:30.465Z,93.21
2017-10-12T03:13:30.452Z,93.6
2017-10-12T03:14:30.429Z,93.21
2017-10-12T03:15:30.401Z,93.21
2017-10-12T03:16:30.377Z,92.93
2017-10-12T03:17:30.355Z,93.21
2017-10-12T03:18:30.336Z,93.4
2017-10-12T03:19:30.334Z,93.02
2017-10-12T03:20:30.295Z,93.02
2017-10-12T03:21:30.270Z,92.83
2017-10-12T03:22:30.274Z,93.12
2017-10-12T03:23:30.225Z,93.21
2017-10-12T03:24:30.210Z,93.5
2017-10-12T03:25:30.180Z,93.5
2017-10-12T03:26:30.158Z,92.93
2017-10-12T03:27:30.134Z,93.02
2017-10-12T03:28:30.115Z,93.21
2017-10-12T03:29:30.092Z,92.74
2017-10-12T03:30:30.072Z,93.21
2017-10-12T03:31:30.048Z,92.93
2017-10-12T03:32:30.026Z,93.5
2017-10-12T03:33:29.999Z,93.5
2017-10-12T03:34:29.658Z,93.12
2017-10-12T03:35:29.960Z,92.93
2017-10-12T03:36:29.931Z,93.31
2017-10-12T03:37:29.911Z,93.31
2017-10-12T03:38:29.886Z,93.5
2017-10-12T03:39:29.871Z,93.45
2017-10-12T03:40:29.845Z,93.65
2017-10-12T03:41:29.820Z,93.36
2017-10-12T03:42:29.798Z,93.45
2017-10-12T03:43:29.776Z,93.16
2017-10-12T03:44:29.755Z,93.55
2017-10-12T03:45:29.736Z,93.55
2017-10-12T03:46:29.713Z,93.84
2017-10-12T03:47:29.685Z,93.84
2017-10-12T03:48:29.671Z,94.02
2017-10-12T03:49:29.641Z,93.93
2017-10-12T03:50:29.617Z,93.84
2017-10-12T03:51:29.597Z,93.84
2017-10-12T03:52:29.579Z,93.79
2017-10-12T03:53:29.561Z,93.93
2017-10-12T03:54:29.529Z,93.79
2017-10-12T03:55:29.186Z,93.88
2017-10-12T03:56:29.487Z,93.65
2017-10-12T03:57:29.468Z,93.93
2017-10-12T03:58:29.437Z,93.93
2017-10-12T03:59:29.425Z,93.6
2017-10-12T04:00:29.394Z,93.93
2017-10-12T04:01:29.390Z,93.93
2017-10-12T04:02:29.348Z,93.98
2017-10-12T04:03:29.326Z,93.98
2017-10-12T04:04:29.301Z,93.6
2017-10-12T04:05:29.282Z,93.98
2017-10-12T04:06:29.256Z,93.7
2017-10-12T04:07:29.234Z,93.79
2017-10-12T04:08:29.214Z,93.41
2017-10-12T04:09:29.195Z,93.7
2017-10-12T04:10:29.170Z,93.7
2017-10-12T04:11:29.150Z,93.88
2017-10-12T04:12:29.133Z,93.79
2017-10-12T04:13:29.099Z,93.88
2017-10-12T04:14:29.078Z,93.98
2017-10-12T04:15:29.060Z,93.98
2017-10-12T04:16:28.717Z,93.7
2017-10-12T04:17:29.012Z,93.7
2017-10-12T04:18:28.991Z,93.7
2017-10-12T04:19:28.967Z,93.7
2017-10-12T04:20:28.951Z,93.7
2017-10-12T04:21:28.941Z,93.7
2017-10-12T04:22:28.897Z,93.7
2017-10-12T04:23:28.875Z,93.7
2017-10-12T04:24:28.862Z,93.6
2017-10-12T04:25:28.832Z,93.7
2017-10-12T04:26:28.824Z,93.55
2017-10-12T04:27:28.785Z,93.79
2017-10-12T04:28:28.763Z,93.41
2017-10-12T04:29:28.747Z,93.98
2017-10-12T04:30:28.718Z,93.41
2017-10-12T04:31:28.692Z,93.74
2017-10-12T04:32:28.671Z,93.46
2017-10-12T04:33:28.648Z,93.5
2017-10-12T04:34:28.628Z,93.5
2017-10-12T04:35:28.603Z,94.12
2017-10-12T04:36:28.582Z,93.93
2017-10-12T04:37:28.556Z,94.17
2017-10-12T04:38:28.538Z,93.98
2017-10-12T04:39:28.513Z,94.07
2017-10-12T04:40:28.491Z,93.84
2017-10-12T04:41:28.470Z,94.03
2017-10-12T04:42:28.449Z,93.84
2017-10-12T04:43:28.424Z,93.98
2017-10-12T04:44:28.406Z,93.65
2017-10-12T04:45:28.383Z,93.88
2017-10-12T04:46:28.034Z,94.12
2017-10-12T04:47:28.333Z,93.65
2017-10-12T04:48:28.331Z,94.12
2017-10-12T04:49:28.290Z,94.03
2017-10-12T04:50:28.265Z,94.12
2017-10-12T04:51:28.236Z,93.74
2017-10-12T04:52:28.236Z,94.12
2017-10-12T04:53:28.198Z,93.74
2017-10-12T04:54:27.856Z,94.12
2017-10-12T04:55:28.150Z,94.12
2017-10-12T04:56:28.132Z,94.07
2017-10-12T04:57:28.102Z,94.03
2017-10-12T04:58:28.081Z,93.65
2017-10-12T04:59:28.086Z,94.07
2017-10-12T05:00:28.038Z,94.07
2017-10-12T05:01:28.018Z,93.98
2017-10-12T05:02:27.995Z,93.84
2017-10-12T05:03:27.966Z,94.07
2017-10-12T05:04:27.956Z,93.6
2017-10-12T05:05:27.927Z,93.46
2017-10-12T05:06:27.902Z,94.27
2017-10-12T05:07:27.880Z,94.22
2017-10-12T05:08:27.859Z,93.5
2017-10-12T05:09:27.833Z,94.12
2017-10-12T05:10:27.809Z,94.22
2017-10-12T05:11:27.789Z,93.65
2017-10-12T05:12:27.763Z,94.12
2017-10-12T05:13:27.738Z,93.74
2017-10-12T05:14:27.718Z,93.74
2017-10-12T05:15:27.698Z,94.22
2017-10-12T05:16:27.673Z,93.93
2017-10-12T05:17:27.647Z,93.93
2017-10-12T05:18:27.634Z,94.17
2017-10-12T05:19:27.602Z,94.03
2017-10-12T05:20:27.578Z,93.93
2017-10-12T05:21:27.556Z,93.93
2017-10-12T05:22:27.545Z,94.03
2017-10-12T05:23:27.199Z,93.98
2017-10-12T05:24:27.490Z,94.12
2017-10-12T05:25:27.489Z,94.12
2017-10-12T05:26:27.451Z,94.03
2017-10-12T05:27:27.103Z,94.12
2017-10-12T05:28:27.403Z,94.12
2017-10-12T05:29:27.372Z,94.12
2017-10-12T05:30:27.354Z,94.12
2017-10-12T05:31:27.331Z,94.12
2017-10-12T05:32:27.308Z,94.22
2017-10-12T05:33:27.289Z,94.12
2017-10-12T05:34:27.267Z,94.22
2017-10-12T05:35:27.238Z,94.12
2017-10-12T05:36:27.228Z,94.22
2017-10-12T05:37:27.195Z,94.03
2017-10-12T05:38:27.173Z,94.12
2017-10-12T05:39:27.143Z,94.12
2017-10-12T05:40:27.130Z,94.17
2017-10-12T05:41:27.106Z,94.17
2017-10-12T05:42:27.080Z,94.27
2017-10-12T05:43:27.059Z,94.36
2017-10-12T05:44:27.039Z,94.17
2017-10-12T05:45:27.006Z,94.36
2017-10-12T05:46:26.989Z,94.55
2017-10-12T05:47:26.967Z,94.17
2017-10-12T05:48:26.949Z,94.31
2017-10-12T05:49:26.925Z,94.36
2017-10-12T05:50:26.899Z,94.17
2017-10-12T05:51:26.879Z,94.31
2017-10-12T05:52:26.852Z,94.17
2017-10-12T05:53:26.832Z,94.31
2017-10-12T05:54:26.837Z,94.12
2017-10-12T05:55:26.792Z,94.31
2017-10-12T05:56:26.452Z,94.98
2017-10-12T05:57:26.744Z,94.31
2017-10-12T05:58:26.717Z,94.31
2017-10-12T05:59:26.691Z,94.65
2017-10-12T06:00:26.673Z,94.51
2017-10-12T06:01:26.649Z,94.74
2017-10-12T06:02:26.637Z,94.31
2017-10-12T06:03:26.602Z,94.74
2017-10-12T06:04:26.591Z,94.55
2017-10-12T06:05:26.556Z,94.55
2017-10-12T06:06:26.536Z,94.84
2017-10-12T06:07:26.509Z,94.65
2017-10-12T06:08:26.491Z,94.74
2017-10-12T06:09:26.472Z,94.93
2017-10-12T06:10:26.446Z,94.93
2017-10-12T06:11:26.432Z,94.93
2017-10-12T06:12:26.405Z,94.74
2017-10-12T06:13:26.379Z,94.74
2017-10-12T06:14:26.359Z,94.93
2017-10-12T06:15:26.329Z,94.74
2017-10-12T06:16:26.314Z,94.74
2017-10-12T06:17:26.290Z,94.74
2017-10-12T06:18:25.943Z,95.03
2017-10-12T06:19:26.239Z,94.74
2017-10-12T06:20:26.230Z,94.74
2017-10-12T06:21:26.196Z,94.84
2017-10-12T06:22:26.172Z,94.74
2017-10-12T06:23:26.150Z,94.65
2017-10-12T06:24:26.127Z,95.12
2017-10-12T06:25:26.108Z,94.74
2017-10-12T06:26:26.089Z,94.84
2017-10-12T06:27:26.060Z,94.74
2017-10-12T06:28:26.043Z,94.55
2017-10-12T06:29:26.020Z,94.46
2017-10-12T06:30:25.999Z,94.74
2017-10-12T06:31:25.970Z,94.84
2017-10-12T06:32:25.949Z,94.79
2017-10-12T06:33:25.924Z,94.89
2017-10-12T06:34:25.903Z,94.89
2017-10-12T06:35:25.884Z,94.93
2017-10-12T06:36:25.860Z,95.07
2017-10-12T06:37:25.842Z,95.07
2017-10-12T06:38:25.829Z,94.89
2017-10-12T06:39:25.790Z,94.79
2017-10-12T06:40:25.770Z,94.89
2017-10-12T06:41:25.747Z,94.79
2017-10-12T06:42:25.736Z,94.89
2017-10-12T06:43:25.704Z,95.07
2017-10-12T06:44:25.677Z,94.89
2017-10-12T06:45:25.661Z,95.12
2017-10-12T06:46:25.639Z,95.17
2017-10-12T06:47:25.611Z,94.6
2017-10-12T06:48:25.588Z,94.51
2017-10-12T06:49:25.578Z,94.79
2017-10-12T06:50:25.549Z,94.6
2017-10-12T06:51:25.526Z,94.6
2017-10-12T06:52:25.502Z,95.17
2017-10-12T06:53:25.488Z,94.51
2017-10-12T06:54:25.142Z,94.31
2017-10-12T06:55:25.435Z,94.7
2017-10-12T06:56:25.414Z,94.79
2017-10-12T06:57:25.402Z,95.17
2017-10-12T06:58:25.369Z,94.51
2017-10-12T06:59:25.343Z,94.89
2017-10-12T07:00:25.326Z,94.89
2017-10-12T07:01:25.301Z,95.17
2017-10-12T07:02:25.276Z,94.89
2017-10-12T07:03:25.255Z,94.98
2017-10-12T07:04:25.232Z,94.79
2017-10-12T07:05:25.211Z,94.74
2017-10-12T07:06:25.189Z,94.55
2017-10-12T07:07:25.166Z,94.74
2017-10-12T07:08:25.151Z,94.51
2017-10-12T07:09:25.130Z,94.7
2017-10-12T07:10:25.097Z,94.93
2017-10-12T07:11:25.082Z,95.17
2017-10-12T07:12:25.052Z,94.74
2017-10-12T07:13:24.713Z,94.79
2017-10-12T07:14:25.005Z,94.74
2017-10-12T07:15:24.989Z,94.79
2017-10-12T07:16:24.964Z,94.79
2017-10-12T07:17:24.942Z,94.98
2017-10-12T07:18:24.926Z,94.51
2017-10-12T07:19:24.902Z,94.79
2017-10-12T07:20:24.893Z,94.79
2017-10-12T07:21:24.855Z,94.79
2017-10-12T07:22:24.844Z,94.6
2017-10-12T07:23:24.813Z,94.51
2017-10-12T07:24:24.788Z,94.79
2017-10-12T07:25:24.770Z,94.79
2017-10-12T07:26:24.744Z,94.7
2017-10-12T07:27:24.743Z,94.89
2017-10-12T07:28:24.701Z,94.79
2017-10-12T07:29:24.680Z,94.7
2017-10-12T07:30:24.347Z,94.79
2017-10-12T07:31:24.635Z,94.98
2017-10-12T07:32:24.619Z,94.7
2017-10-12T07:33:24.592Z,94.79
2017-10-12T07:34:24.248Z,94.79
2017-10-12T07:35:24.544Z,95.36
2017-10-12T07:36:24.524Z,94.79
2017-10-12T07:37:24.502Z,94.7
2017-10-12T07:38:24.479Z,94.89
2017-10-12T07:39:24.469Z,95.36
2017-10-12T07:40:24.437Z,95.17
2017-10-12T07:41:24.147Z,95.27
2017-10-12T07:42:24.392Z,94.98
2017-10-12T07:43:24.370Z,94.89
2017-10-12T07:44:24.348Z,94.89
2017-10-12T07:45:24.326Z,94.6
2017-10-12T07:46:24.303Z,95.07
2017-10-12T07:47:24.278Z,94.7
2017-10-12T07:48:24.259Z,95.17
2017-10-12T07:49:24.244Z,95.17
2017-10-12T07:50:24.213Z,94.79
2017-10-12T07:51:24.194Z,95.17
2017-10-12T07:52:24.174Z,94.7
2017-10-12T07:53:24.144Z,95.17
2017-10-12T07:54:24.144Z,94.89
2017-10-12T07:55:24.102Z,95.07
2017-10-12T07:56:24.078Z,94.98
2017-10-12T07:57:24.069Z,94.98
2017-10-12T07:58:23.720Z,94.41
2017-10-12T07:59:24.017Z,94.89
2017-10-12T08:00:23.994Z,94.6
2017-10-12T08:01:23.996Z,95.12
2017-10-12T08:02:23.957Z,94.65
2017-10-12T08:03:23.932Z,95.22
2017-10-12T08:04:23.905Z,94.36
2017-10-12T08:05:23.884Z,94.65
2017-10-12T08:06:23.865Z,95.32
2017-10-12T08:07:23.839Z,95.41
2017-10-12T08:08:23.818Z,95.32
2017-10-12T08:09:23.803Z,94.65
2017-10-12T08:10:23.776Z,94.46
2017-10-12T08:11:23.755Z,94.65
2017-10-12T08:12:23.734Z,94.65
2017-10-12T08:13:23.711Z,94.65
2017-10-12T08:14:23.691Z,94.74
2017-10-12T08:15:23.666Z,94.74
2017-10-12T08:16:23.644Z,94.65
2017-10-12T08:17:23.632Z,94.84
2017-10-12T08:18:23.596Z,95.12
2017-10-12T08:19:23.578Z,94.93
2017-10-12T08:20:23.557Z,95.03
2017-10-12T08:21:23.536Z,94.7
2017-10-12T08:22:23.515Z,94.6
2017-10-12T08:23:23.498Z,94.79
2017-10-12T08:24:23.144Z,94.5
2017-10-12T08:25:23.127Z,94.5
2017-10-12T08:26:23.424Z,94.74
2017-10-12T08:27:23.406Z,94.45
2017-10-12T08:28:23.389Z,94.84
2017-10-12T08:29:23.363Z,94.84
2017-10-12T08:30:23.340Z,94.26
2017-10-12T08:31:23.331Z,93.98
2017-10-12T08:32:23.299Z,94.36
2017-10-12T08:33:23.283Z,94.4
2017-10-12T08:34:23.263Z,94.12
2017-10-12T08:35:23.240Z,94.5
2017-10-12T08:36:23.245Z,93.93
2017-10-12T08:37:23.199Z,94.12
2017-10-12T08:38:23.172Z,94.17
2017-10-12T08:39:23.150Z,94.4
2017-10-12T08:40:23.131Z,93.98
2017-10-12T08:41:23.117Z,94.07
2017-10-12T08:42:23.094Z,93.59
2017-10-12T08:43:23.067Z,93.98
2017-10-12T08:44:23.050Z,93.69
2017-10-12T08:45:23.034Z,93.78
2017-10-12T08:46:23.006Z,93.59
2017-10-12T08:47:22.995Z,93.88
2017-10-12T08:48:22.971Z,93.78
2017-10-12T08:49:22.953Z,93.4
2017-10-12T08:50:22.925Z,93.78
2017-10-12T08:51:22.906Z,93.69
2017-10-12T08:52:22.888Z,93.59
2017-10-12T08:53:22.880Z,93.4
2017-10-12T08:54:22.841Z,93.35
2017-10-12T08:55:22.823Z,93.54
2017-10-12T08:56:22.815Z,93.45
2017-10-12T08:57:22.795Z,93.35
2017-10-12T08:58:22.759Z,93.83
2017-10-12T08:59:22.740Z,93.64
2017-10-12T09:00:22.717Z,93.74
2017-10-12T09:01:22.707Z,93.54
2017-10-12T09:02:22.679Z,93.69
2017-10-12T09:03:22.657Z,93.79
2017-10-12T09:04:22.648Z,93.59
2017-10-12T09:05:22.609Z,93.5
2017-10-12T09:06:22.592Z,93.3
2017-10-12T09:07:22.574Z,93.5
2017-10-12T09:08:22.549Z,93.59
2017-10-12T09:09:22.526Z,94.17
2017-10-12T09:10:22.511Z,93.21
2017-10-12T09:11:22.496Z,94.02
2017-10-12T09:12:22.468Z,93.45
2017-10-12T09:13:22.443Z,93.88
2017-10-12T09:14:22.427Z,93.59
2017-10-12T09:15:22.084Z,93.84
2017-10-12T09:16:22.381Z,93.88
2017-10-12T09:17:22.360Z,94.07
2017-10-12T09:18:22.346Z,93.69
2017-10-12T09:19:22.001Z,93.88
2017-10-12T09:20:22.301Z,93.88
2017-10-12T09:21:22.274Z,94.07
2017-10-12T09:22:22.256Z,93.59
2017-10-12T09:23:22.243Z,94.07
2017-10-12T09:24:22.216Z,93.98
2017-10-12T09:25:22.189Z,93.84
2017-10-12T09:26:22.171Z,94.02
2017-10-12T09:27:22.145Z,93.64
2017-10-12T09:28:22.174Z,93.84
2017-10-12T09:29:22.106Z,93.69
2017-10-12T09:30:22.086Z,93.69
2017-10-12T09:31:22.061Z,94.26
2017-10-12T09:32:22.042Z,93.3
2017-10-12T09:33:22.021Z,93.69
2017-10-12T09:34:22.005Z,93.59
2017-10-12T09:35:21.976Z,93.21
2017-10-12T09:36:21.959Z,93.59
2017-10-12T09:37:21.932Z,93.88
2017-10-12T09:38:21.908Z,93.5
2017-10-12T09:39:21.892Z,93.59
2017-10-12T09:40:21.908Z,93.5
2017-10-12T09:41:21.865Z,93.4
2017-10-12T09:42:21.833Z,93.5
2017-10-12T09:43:21.838Z,93.4
2017-10-12T09:44:21.465Z,93.59
2017-10-12T09:45:21.769Z,93.69
2017-10-12T09:46:21.753Z,93.98
2017-10-12T09:47:21.728Z,93.79
2017-10-12T09:48:21.700Z,93.79
2017-10-12T09:49:21.357Z,93.3
2017-10-12T09:50:21.660Z,93.79
2017-10-12T09:51:21.634Z,93.79
2017-10-12T09:52:21.624Z,93.5
2017-10-12T09:53:21.598Z,93.5
2017-10-12T09:54:21.573Z,93.54
2017-10-12T09:55:21.552Z,93.12
2017-10-12T09:56:21.555Z,93.16
2017-10-12T09:57:21.516Z,93.74
2017-10-12T09:58:21.491Z,93.35
2017-10-12T09:59:21.467Z,93.16
2017-10-12T10:00:21.448Z,92.97
2017-10-12T10:01:21.133Z,92.97
2017-10-12T10:02:21.405Z,93.16
2017-10-12T10:03:21.392Z,92.97
2017-10-12T10:04:21.360Z,92.49
2017-10-12T10:05:21.345Z,92.49
2017-10-12T10:06:21.318Z,92.58
2017-10-12T10:07:21.305Z,92.4
2017-10-12T10:08:21.276Z,92.97
2017-10-12T10:09:21.260Z,92.78
2017-10-12T10:10:21.237Z,92.3
2017-10-12T10:11:21.211Z,92.4
2017-10-12T10:12:21.201Z,92.21
2017-10-12T10:13:21.169Z,92.21
2017-10-12T10:14:21.155Z,92.3
2017-10-12T10:15:21.132Z,92.01
2017-10-12T10:16:21.110Z,92.4
2017-10-12T10:17:21.089Z,92.01
2017-10-12T10:18:21.076Z,92.11
2017-10-12T10:19:21.054Z,92.01
2017-10-12T10:20:21.025Z,92.21
2017-10-12T10:21:21.000Z,92.21
2017-10-12T10:22:20.986Z,91.53
2017-10-12T10:23:20.960Z,92.3
2017-10-12T10:24:20.618Z,91.82
2017-10-12T10:25:20.938Z,91.82
2017-10-12T10:26:20.904Z,91.25
2017-10-12T10:27:20.873Z,91.82
2017-10-12T10:28:20.857Z,91.53
2017-10-12T10:29:20.831Z,91.53
2017-10-12T10:30:20.818Z,92.01
2017-10-12T10:31:20.794Z,91.44
2017-10-12T10:32:20.776Z,91.53
2017-10-12T10:33:20.752Z,91.53
2017-10-12T10:34:20.730Z,91.96
2017-10-12T10:35:20.708Z,90.96
2017-10-12T10:36:20.684Z,91.44
2017-10-12T10:37:20.669Z,91.25
2017-10-12T10:38:20.651Z,91.25
2017-10-12T10:39:20.639Z,90.77
2017-10-12T10:40:20.609Z,90.67
2017-10-12T10:41:20.596Z,90.86
2017-10-12T10:42:20.564Z,90.48
2017-10-12T10:43:20.545Z,90.23
2017-10-12T10:44:20.518Z,90.53
2017-10-12T10:45:20.496Z,90.53
2017-10-12T10:46:20.477Z,90.14
2017-10-12T10:47:20.459Z,90.33
2017-10-12T10:48:20.118Z,90.23
2017-10-12T10:49:20.416Z,90.05
2017-10-12T10:50:20.391Z,89.66
2017-10-12T10:51:20.380Z,90.05
2017-10-12T10:52:20.356Z,89.86
2017-10-12T10:53:20.328Z,89.47
2017-10-12T10:54:20.321Z,89.09
2017-10-12T10:55:20.296Z,88.9
2017-10-12T10:56:20.274Z,88.9
2017-10-12T10:57:20.250Z,88.9
2017-10-12T10:58:20.244Z,89.47
2017-10-12T10:59:20.211Z,88.99
2017-10-12T11:00:20.192Z,89.37
2017-10-12T11:01:20.169Z,89.09
2017-10-12T11:02:19.824Z,88.99
2017-10-12T11:03:20.132Z,89.37
2017-10-12T11:04:20.108Z,89.18
2017-10-12T11:05:20.088Z,89.09
2017-10-12T11:06:20.061Z,89.28
2017-10-12T11:07:20.056Z,89.47
2017-10-12T11:08:20.021Z,88.9
2017-10-12T11:09:20.000Z,89.18
2017-10-12T11:10:19.978Z,89.28
2017-10-12T11:11:19.960Z,89.23
2017-10-12T11:12:19.951Z,88.94
2017-10-12T11:13:19.915Z,88.99
2017-10-12T11:14:19.898Z,89.42
2017-10-12T11:15:19.887Z,89.51
2017-10-12T11:16:19.857Z,88.94
2017-10-12T11:17:19.832Z,88.46
2017-10-12T11:18:19.817Z,88.56
2017-10-12T11:19:19.800Z,88.56
2017-10-12T11:20:19.771Z,88.37
2017-10-12T11:21:19.437Z,88.17
2017-10-12T11:22:19.734Z,88.46
2017-10-12T11:23:19.710Z,88.56
2017-10-12T11:24:19.702Z,87.88
2017-10-12T11:25:19.667Z,87.79
2017-10-12T11:26:19.647Z,87.79
2017-10-12T11:27:19.627Z,87.31
2017-10-12T11:28:19.611Z,87.21
2017-10-12T11:29:19.271Z,87.02
2017-10-12T11:30:19.568Z,87.31
2017-10-12T11:31:19.549Z,87.41
2017-10-12T11:32:19.534Z,86.83
2017-10-12T11:33:19.511Z,87.41
2017-10-12T11:34:19.491Z,86.93
2017-10-12T11:35:19.467Z,86.74
2017-10-12T11:36:19.449Z,87.12
2017-10-12T11:37:19.438Z,86.88
2017-10-12T11:38:19.091Z,86.4
2017-10-12T11:39:19.382Z,86.68
2017-10-12T11:40:19.364Z,85.63
2017-10-12T11:41:19.347Z,86.11
2017-10-12T11:42:19.320Z,85.97
2017-10-12T11:43:19.305Z,85.82
2017-10-12T11:44:19.292Z,84.82
2017-10-12T11:45:19.261Z,84.86
2017-10-12T11:46:19.238Z,85.21
2017-10-12T11:47:19.222Z,85.53
2017-10-12T11:48:19.199Z,84.91
2017-10-12T11:49:19.176Z,84.09
2017-10-12T11:50:19.162Z,84.25
2017-10-12T11:51:19.155Z,84.28
2017-10-12T11:52:19.119Z,83.71
2017-10-12T11:53:19.101Z,83.71
2017-10-12T11:54:19.077Z,82.71
2017-10-12T11:55:19.058Z,81.75
2017-10-12T11:56:19.037Z,82.32
2017-10-12T11:57:19.019Z,82.04
2017-10-12T11:58:18.996Z,82.32
2017-10-12T11:59:18.655Z,82.04
2017-10-12T12:00:18.956Z,82.14
2017-10-12T12:01:18.615Z,82.9
2017-10-12T12:02:18.914Z,82.52
2017-10-12T12:03:18.893Z,82.62
2017-10-12T12:04:18.871Z,82.32
2017-10-12T12:05:18.855Z,82.23
2017-10-12T12:06:18.834Z,82.42
2017-10-12T12:07:18.820Z,81.56
2017-10-12T12:08:18.467Z,80.79
2017-10-12T12:09:18.771Z,81.18
2017-10-12T12:10:18.745Z,80.99
2017-10-12T12:11:18.730Z,81.27
2017-10-12T12:12:18.713Z,81.75
2017-10-12T12:13:18.697Z,81.75
2017-10-12T12:14:18.672Z,82.32
2017-10-12T12:15:18.648Z,82.52
2017-10-12T12:16:18.630Z,82.42
2017-10-12T12:17:18.604Z,82.52
2017-10-12T12:18:18.584Z,82.52
2017-10-12T12:19:18.560Z,82.14
2017-10-12T12:20:18.543Z,82.62
2017-10-12T12:21:18.523Z,82.23
2017-10-12T12:22:18.514Z,82.52
2017-10-12T12:23:18.481Z,82.32
2017-10-12T12:24:18.471Z,82.81
2017-10-12T12:25:18.444Z,83
2017-10-12T12:26:18.424Z,82.14
2017-10-12T12:27:18.091Z,82.42
2017-10-12T12:28:18.060Z,82.32
2017-10-12T12:29:18.365Z,82.32
2017-10-12T12:30:18.346Z,81.85
2017-10-12T12:31:18.322Z,81.66
2017-10-12T12:32:18.298Z,81.18
2017-10-12T12:33:18.285Z,81.08
2017-10-12T12:34:18.264Z,81.08
2017-10-12T12:35:18.237Z,80.32
2017-10-12T12:36:18.216Z,79.45
2017-10-12T12:37:18.195Z,79.74
2017-10-12T12:38:18.178Z,79.64
2017-10-12T12:39:18.160Z,79.36
2017-10-12T12:40:18.133Z,79.36
2017-10-12T12:41:18.116Z,79.55
2017-10-12T12:42:18.097Z,79.74
2017-10-12T12:43:18.072Z,80.03
2017-10-12T12:44:18.062Z,79.93
2017-10-12T12:45:18.036Z,80.32
2017-10-12T12:46:18.010Z,80.99
2017-10-12T12:47:17.995Z,80.76
2017-10-12T12:48:17.971Z,81.81
2017-10-12T12:49:17.949Z,81.9
2017-10-12T12:50:17.925Z,81.75
2017-10-12T12:51:17.906Z,82.32
2017-10-12T12:52:17.568Z,81.9
2017-10-12T12:53:17.866Z,81.23
2017-10-12T12:54:17.851Z,81.85
2017-10-12T12:55:17.832Z,81.75
2017-10-12T12:56:17.811Z,81.75